sensor_id;sensor_type;location;lat;lon;timestamp;P1;durP1;ratioP1;P2;durP2;ratioP2
77051;SDS011;65980;44.898;8.602;2023-01-19T00:00:04;76.18;;;25.42;;
77051;SDS011;65980;44.898;8.602;2023-01-19T00:03:11;64.20;;;23.27;;
77051;SDS011;65980;44.898;8.602;2023-01-19T00:06:19;64.55;;;23.08;;
77051;SDS011;65980;44.898;8.602;2023-01-19T00:09:23;64.95;;;24.40;;
77051;SDS011;65980;44.898;8.602;2023-01-19T00:12:27;53.80;;;18.08;;
77051;SDS011;65980;44.898;8.602;2023-01-19T00:18:35;54.75;;;19.90;;
77051;SDS011;65980;44.898;8.602;2023-01-19T00:21:40;52.80;;;20.25;;
77051;SDS011;65980;44.898;8.602;2023-01-19T00:24:45;55.28;;;20.35;;
77051;SDS011;65980;44.898;8.602;2023-01-19T00:27:49;57.33;;;17.85;;
77051;SDS011;65980;44.898;8.602;2023-01-19T00:30:54;52.33;;;18.77;;
77051;SDS011;65980;44.898;8.602;2023-01-19T00:33:58;61.67;;;20.10;;
77051;SDS011;65980;44.898;8.602;2023-01-19T00:37:03;61.45;;;18.42;;
77051;SDS011;65980;44.898;8.602;2023-01-19T00:40:07;59.05;;;20.80;;
77051;SDS011;65980;44.898;8.602;2023-01-19T00:43:13;51.45;;;18.85;;
77051;SDS011;65980;44.898;8.602;2023-01-19T00:46:23;45.97;;;16.10;;
77051;SDS011;65980;44.898;8.602;2023-01-19T00:49:37;51.15;;;19.80;;
77051;SDS011;65980;44.898;8.602;2023-01-19T00:52:53;53.47;;;19.15;;
77051;SDS011;65980;44.898;8.602;2023-01-19T00:56:04;53.55;;;18.70;;
77051;SDS011;65980;44.898;8.602;2023-01-19T00:59:13;59.47;;;21.70;;
77051;SDS011;65980;44.898;8.602;2023-01-19T01:02:21;48.20;;;19.20;;
77051;SDS011;65980;44.898;8.602;2023-01-19T01:05:34;51.15;;;19.17;;
77051;SDS011;65980;44.898;8.602;2023-01-19T01:08:45;48.75;;;18.75;;
77051;SDS011;65980;44.898;8.602;2023-01-19T01:11:50;63.25;;;25.60;;
77051;SDS011;65980;44.898;8.602;2023-01-19T01:14:55;54.13;;;20.02;;
77051;SDS011;65980;44.898;8.602;2023-01-19T01:18:00;59.78;;;24.42;;
77051;SDS011;65980;44.898;8.602;2023-01-19T01:21:05;65.68;;;23.50;;
77051;SDS011;65980;44.898;8.602;2023-01-19T01:24:39;54.08;;;21.08;;
77051;SDS011;65980;44.898;8.602;2023-01-19T01:27:44;64.40;;;24.55;;
77051;SDS011;65980;44.898;8.602;2023-01-19T01:30:51;70.80;;;25.13;;
77051;SDS011;65980;44.898;8.602;2023-01-19T01:33:58;82.30;;;27.27;;
77051;SDS011;65980;44.898;8.602;2023-01-19T01:37:01;79.35;;;27.45;;
77051;SDS011;65980;44.898;8.602;2023-01-19T01:40:06;75.45;;;27.38;;
77051;SDS011;65980;44.898;8.602;2023-01-19T01:43:12;70.40;;;23.58;;
77051;SDS011;65980;44.898;8.602;2023-01-19T01:46:18;75.43;;;25.58;;
77051;SDS011;65980;44.898;8.602;2023-01-19T01:49:23;68.20;;;23.90;;
77051;SDS011;65980;44.898;8.602;2023-01-19T01:52:27;62.55;;;23.38;;
77051;SDS011;65980;44.898;8.602;2023-01-19T01:55:32;75.82;;;26.63;;
77051;SDS011;65980;44.898;8.602;2023-01-19T01:58:41;90.90;;;33.05;;
77051;SDS011;65980;44.898;8.602;2023-01-19T02:01:47;97.15;;;32.85;;
77051;SDS011;65980;44.898;8.602;2023-01-19T02:05:31;92.05;;;31.40;;
77051;SDS011;65980;44.898;8.602;2023-01-19T02:08:40;92.70;;;33.53;;
77051;SDS011;65980;44.898;8.602;2023-01-19T02:12:20;99.97;;;32.63;;
77051;SDS011;65980;44.898;8.602;2023-01-19T02:15:43;94.97;;;32.00;;
77051;SDS011;65980;44.898;8.602;2023-01-19T02:18:48;103.47;;;32.20;;
77051;SDS011;65980;44.898;8.602;2023-01-19T02:21:53;114.43;;;34.67;;
77051;SDS011;65980;44.898;8.602;2023-01-19T02:25:05;102.50;;;31.70;;
77051;SDS011;65980;44.898;8.602;2023-01-19T02:28:10;94.32;;;30.48;;
77051;SDS011;65980;44.898;8.602;2023-01-19T02:31:15;78.88;;;28.05;;
77051;SDS011;65980;44.898;8.602;2023-01-19T02:34:20;108.28;;;36.00;;
77051;SDS011;65980;44.898;8.602;2023-01-19T02:37:25;107.88;;;33.03;;
77051;SDS011;65980;44.898;8.602;2023-01-19T02:40:34;96.53;;;32.45;;
77051;SDS011;65980;44.898;8.602;2023-01-19T02:43:40;94.80;;;30.33;;
77051;SDS011;65980;44.898;8.602;2023-01-19T02:46:46;105.63;;;31.23;;
77051;SDS011;65980;44.898;8.602;2023-01-19T02:49:56;86.72;;;28.52;;
77051;SDS011;65980;44.898;8.602;2023-01-19T02:53:05;107.28;;;32.05;;
77051;SDS011;65980;44.898;8.602;2023-01-19T02:59:54;93.78;;;31.30;;
77051;SDS011;65980;44.898;8.602;2023-01-19T03:14:23;73.75;;;24.98;;
77051;SDS011;65980;44.898;8.602;2023-01-19T03:17:39;78.45;;;26.20;;
77051;SDS011;65980;44.898;8.602;2023-01-19T03:20:57;80.63;;;26.40;;
77051;SDS011;65980;44.898;8.602;2023-01-19T03:24:08;69.38;;;25.30;;
77051;SDS011;65980;44.898;8.602;2023-01-19T03:27:17;73.10;;;25.23;;
77051;SDS011;65980;44.898;8.602;2023-01-19T03:30:29;67.10;;;22.85;;
77051;SDS011;65980;44.898;8.602;2023-01-19T03:33:40;33.35;;;12.02;;
77051;SDS011;65980;44.898;8.602;2023-01-19T03:36:51;27.90;;;10.07;;
77051;SDS011;65980;44.898;8.602;2023-01-19T03:40:00;34.33;;;11.57;;
77051;SDS011;65980;44.898;8.602;2023-01-19T03:43:05;42.47;;;17.48;;
77051;SDS011;65980;44.898;8.602;2023-01-19T03:46:13;49.95;;;18.27;;
77051;SDS011;65980;44.898;8.602;2023-01-19T03:49:29;54.95;;;21.60;;
77051;SDS011;65980;44.898;8.602;2023-01-19T03:52:34;58.97;;;23.63;;
77051;SDS011;65980;44.898;8.602;2023-01-19T03:55:41;51.35;;;17.92;;
77051;SDS011;65980;44.898;8.602;2023-01-19T04:01:58;9.95;;;4.82;;
77051;SDS011;65980;44.898;8.602;2023-01-19T04:05:03;10.52;;;4.35;;
77051;SDS011;65980;44.898;8.602;2023-01-19T04:08:08;10.07;;;4.25;;
77051;SDS011;65980;44.898;8.602;2023-01-19T04:11:12;12.18;;;5.55;;
77051;SDS011;65980;44.898;8.602;2023-01-19T04:14:16;22.63;;;7.55;;
77051;SDS011;65980;44.898;8.602;2023-01-19T04:17:20;26.38;;;10.40;;
77051;SDS011;65980;44.898;8.602;2023-01-19T04:20:25;19.55;;;8.85;;
77051;SDS011;65980;44.898;8.602;2023-01-19T04:23:31;29.15;;;10.98;;
77051;SDS011;65980;44.898;8.602;2023-01-19T04:26:36;21.65;;;10.52;;
77051;SDS011;65980;44.898;8.602;2023-01-19T04:29:40;26.30;;;13.68;;
77051;SDS011;65980;44.898;8.602;2023-01-19T04:32:44;35.22;;;17.33;;
77051;SDS011;65980;44.898;8.602;2023-01-19T04:35:50;55.85;;;24.10;;
77051;SDS011;65980;44.898;8.602;2023-01-19T04:38:55;42.00;;;19.58;;
77051;SDS011;65980;44.898;8.602;2023-01-19T04:42:00;37.83;;;16.17;;
77051;SDS011;65980;44.898;8.602;2023-01-19T04:45:05;38.60;;;18.25;;
77051;SDS011;65980;44.898;8.602;2023-01-19T04:48:10;46.45;;;17.33;;
77051;SDS011;65980;44.898;8.602;2023-01-19T04:51:14;40.03;;;14.73;;
77051;SDS011;65980;44.898;8.602;2023-01-19T04:54:19;38.70;;;16.42;;
77051;SDS011;65980;44.898;8.602;2023-01-19T04:57:23;32.20;;;13.32;;
77051;SDS011;65980;44.898;8.602;2023-01-19T05:00:27;27.60;;;11.95;;
77051;SDS011;65980;44.898;8.602;2023-01-19T05:03:32;26.92;;;10.75;;
77051;SDS011;65980;44.898;8.602;2023-01-19T05:06:37;23.90;;;10.80;;
77051;SDS011;65980;44.898;8.602;2023-01-19T05:09:42;28.35;;;11.98;;
77051;SDS011;65980;44.898;8.602;2023-01-19T05:12:49;32.00;;;13.30;;
77051;SDS011;65980;44.898;8.602;2023-01-19T05:15:59;26.33;;;12.93;;
77051;SDS011;65980;44.898;8.602;2023-01-19T05:19:09;26.30;;;12.27;;
77051;SDS011;65980;44.898;8.602;2023-01-19T05:22:21;28.90;;;12.95;;
77051;SDS011;65980;44.898;8.602;2023-01-19T05:25:29;25.17;;;12.65;;
77051;SDS011;65980;44.898;8.602;2023-01-19T05:28:34;30.45;;;12.95;;
77051;SDS011;65980;44.898;8.602;2023-01-19T05:31:38;29.63;;;13.18;;
77051;SDS011;65980;44.898;8.602;2023-01-19T05:34:43;33.05;;;13.80;;
77051;SDS011;65980;44.898;8.602;2023-01-19T05:37:47;32.92;;;13.70;;
77051;SDS011;65980;44.898;8.602;2023-01-19T05:40:58;35.42;;;13.93;;
77051;SDS011;65980;44.898;8.602;2023-01-19T05:44:05;34.15;;;14.48;;
77051;SDS011;65980;44.898;8.602;2023-01-19T05:47:09;30.67;;;13.73;;
77051;SDS011;65980;44.898;8.602;2023-01-19T05:50:14;33.72;;;14.02;;
77051;SDS011;65980;44.898;8.602;2023-01-19T05:53:18;28.58;;;14.27;;
77051;SDS011;65980;44.898;8.602;2023-01-19T05:56:23;38.03;;;13.98;;
77051;SDS011;65980;44.898;8.602;2023-01-19T06:02:31;34.22;;;15.77;;
77051;SDS011;65980;44.898;8.602;2023-01-19T06:05:35;40.03;;;13.85;;
77051;SDS011;65980;44.898;8.602;2023-01-19T06:08:42;35.00;;;16.00;;
77051;SDS011;65980;44.898;8.602;2023-01-19T06:11:47;34.42;;;15.10;;
77051;SDS011;65980;44.898;8.602;2023-01-19T06:14:52;33.25;;;14.13;;
77051;SDS011;65980;44.898;8.602;2023-01-19T06:17:56;40.85;;;16.90;;
77051;SDS011;65980;44.898;8.602;2023-01-19T06:21:07;38.33;;;16.60;;
77051;SDS011;65980;44.898;8.602;2023-01-19T06:24:12;40.92;;;17.08;;
77051;SDS011;65980;44.898;8.602;2023-01-19T06:27:16;41.10;;;17.95;;
77051;SDS011;65980;44.898;8.602;2023-01-19T06:30:22;43.90;;;17.15;;
77051;SDS011;65980;44.898;8.602;2023-01-19T06:33:27;39.72;;;16.10;;
77051;SDS011;65980;44.898;8.602;2023-01-19T06:36:32;45.90;;;15.50;;
77051;SDS011;65980;44.898;8.602;2023-01-19T06:39:39;33.92;;;14.85;;
77051;SDS011;65980;44.898;8.602;2023-01-19T06:42:45;40.53;;;17.50;;
77051;SDS011;65980;44.898;8.602;2023-01-19T06:45:51;43.42;;;14.52;;
77051;SDS011;65980;44.898;8.602;2023-01-19T06:49:03;45.08;;;16.10;;
77051;SDS011;65980;44.898;8.602;2023-01-19T06:52:09;39.22;;;14.25;;
77051;SDS011;65980;44.898;8.602;2023-01-19T06:55:18;39.10;;;14.50;;
77051;SDS011;65980;44.898;8.602;2023-01-19T06:58:23;40.15;;;15.68;;
77051;SDS011;65980;44.898;8.602;2023-01-19T07:01:29;35.05;;;13.82;;
77051;SDS011;65980;44.898;8.602;2023-01-19T07:04:35;39.60;;;15.02;;
77051;SDS011;65980;44.898;8.602;2023-01-19T07:07:39;45.50;;;16.55;;
77051;SDS011;65980;44.898;8.602;2023-01-19T07:10:45;45.65;;;16.10;;
77051;SDS011;65980;44.898;8.602;2023-01-19T07:13:52;40.50;;;16.65;;
77051;SDS011;65980;44.898;8.602;2023-01-19T07:16:57;43.95;;;16.63;;
77051;SDS011;65980;44.898;8.602;2023-01-19T07:20:02;47.47;;;16.65;;
77051;SDS011;65980;44.898;8.602;2023-01-19T07:26:43;36.17;;;15.05;;
77051;SDS011;65980;44.898;8.602;2023-01-19T07:29:47;46.97;;;16.35;;
77051;SDS011;65980;44.898;8.602;2023-01-19T07:33:46;37.65;;;16.08;;
77051;SDS011;65980;44.898;8.602;2023-01-19T07:36:50;38.50;;;15.13;;
77051;SDS011;65980;44.898;8.602;2023-01-19T07:39:54;32.83;;;14.27;;
77051;SDS011;65980;44.898;8.602;2023-01-19T07:43:00;35.30;;;14.00;;
77051;SDS011;65980;44.898;8.602;2023-01-19T07:46:04;27.08;;;10.50;;
77051;SDS011;65980;44.898;8.602;2023-01-19T07:49:10;23.67;;;9.80;;
77051;SDS011;65980;44.898;8.602;2023-01-19T07:52:15;20.42;;;9.43;;
77051;SDS011;65980;44.898;8.602;2023-01-19T07:55:22;21.00;;;8.15;;
77051;SDS011;65980;44.898;8.602;2023-01-19T08:05:28;19.27;;;8.80;;
77051;SDS011;65980;44.898;8.602;2023-01-19T08:08:33;21.13;;;9.48;;
77051;SDS011;65980;44.898;8.602;2023-01-19T08:11:37;21.67;;;9.65;;
77051;SDS011;65980;44.898;8.602;2023-01-19T08:14:42;17.75;;;9.15;;
77051;SDS011;65980;44.898;8.602;2023-01-19T08:17:57;19.20;;;9.10;;
77051;SDS011;65980;44.898;8.602;2023-01-19T08:21:05;21.45;;;8.50;;
77051;SDS011;65980;44.898;8.602;2023-01-19T08:24:16;20.15;;;8.35;;
77051;SDS011;65980;44.898;8.602;2023-01-19T08:27:22;25.70;;;8.63;;
77051;SDS011;65980;44.898;8.602;2023-01-19T08:30:28;18.58;;;8.50;;
77051;SDS011;65980;44.898;8.602;2023-01-19T08:33:36;31.00;;;9.80;;
77051;SDS011;65980;44.898;8.602;2023-01-19T08:36:53;15.98;;;8.48;;
77051;SDS011;65980;44.898;8.602;2023-01-19T08:40:03;23.92;;;10.77;;
77051;SDS011;65980;44.898;8.602;2023-01-19T08:43:13;27.92;;;11.18;;
77051;SDS011;65980;44.898;8.602;2023-01-19T08:46:25;23.45;;;11.30;;
77051;SDS011;65980;44.898;8.602;2023-01-19T08:53:40;33.20;;;15.23;;
77051;SDS011;65980;44.898;8.602;2023-01-19T08:56:45;33.97;;;15.13;;
77051;SDS011;65980;44.898;8.602;2023-01-19T08:59:50;37.22;;;16.60;;
77051;SDS011;65980;44.898;8.602;2023-01-19T09:02:59;41.55;;;17.35;;
77051;SDS011;65980;44.898;8.602;2023-01-19T09:06:12;41.17;;;18.10;;
77051;SDS011;65980;44.898;8.602;2023-01-19T09:09:21;39.65;;;17.33;;
77051;SDS011;65980;44.898;8.602;2023-01-19T09:12:26;34.92;;;17.33;;
77051;SDS011;65980;44.898;8.602;2023-01-19T09:15:32;41.13;;;18.70;;
77051;SDS011;65980;44.898;8.602;2023-01-19T09:18:53;43.05;;;18.98;;
77051;SDS011;65980;44.898;8.602;2023-01-19T09:22:04;43.22;;;18.35;;
77051;SDS011;65980;44.898;8.602;2023-01-19T09:25:09;38.35;;;17.52;;
77051;SDS011;65980;44.898;8.602;2023-01-19T09:28:15;37.92;;;17.08;;
77051;SDS011;65980;44.898;8.602;2023-01-19T09:31:20;34.78;;;16.05;;
77051;SDS011;65980;44.898;8.602;2023-01-19T09:34:32;36.53;;;16.50;;
77051;SDS011;65980;44.898;8.602;2023-01-19T09:37:39;33.50;;;14.90;;
77051;SDS011;65980;44.898;8.602;2023-01-19T09:40:47;33.58;;;15.98;;
77051;SDS011;65980;44.898;8.602;2023-01-19T09:43:58;29.23;;;14.45;;
77051;SDS011;65980;44.898;8.602;2023-01-19T09:47:13;33.30;;;16.08;;
77051;SDS011;65980;44.898;8.602;2023-01-19T09:50:25;34.20;;;15.27;;
77051;SDS011;65980;44.898;8.602;2023-01-19T09:56:42;39.58;;;17.13;;
77051;SDS011;65980;44.898;8.602;2023-01-19T09:59:57;32.60;;;15.82;;
77051;SDS011;65980;44.898;8.602;2023-01-19T10:03:11;34.20;;;15.98;;
77051;SDS011;65980;44.898;8.602;2023-01-19T10:10:53;30.88;;;14.63;;
77051;SDS011;65980;44.898;8.602;2023-01-19T10:14:15;33.15;;;15.50;;
77051;SDS011;65980;44.898;8.602;2023-01-19T10:20:55;35.35;;;15.38;;
77051;SDS011;65980;44.898;8.602;2023-01-19T10:27:23;31.58;;;15.23;;
77051;SDS011;65980;44.898;8.602;2023-01-19T10:30:31;45.47;;;17.17;;
77051;SDS011;65980;44.898;8.602;2023-01-19T10:37:02;34.47;;;15.27;;
77051;SDS011;65980;44.898;8.602;2023-01-19T10:40:37;20.33;;;8.70;;
77051;SDS011;65980;44.898;8.602;2023-01-19T10:43:57;17.50;;;8.73;;
77051;SDS011;65980;44.898;8.602;2023-01-19T10:50:27;11.82;;;4.93;;
77051;SDS011;65980;44.898;8.602;2023-01-19T10:53:36;10.43;;;4.00;;
77051;SDS011;65980;44.898;8.602;2023-01-19T10:56:52;9.15;;;4.50;;
77051;SDS011;65980;44.898;8.602;2023-01-19T11:00:40;9.80;;;4.30;;
77051;SDS011;65980;44.898;8.602;2023-01-19T11:04:24;9.05;;;4.35;;
77051;SDS011;65980;44.898;8.602;2023-01-19T11:07:42;7.22;;;4.05;;
77051;SDS011;65980;44.898;8.602;2023-01-19T11:10:51;10.38;;;4.45;;
77051;SDS011;65980;44.898;8.602;2023-01-19T11:14:13;7.25;;;4.32;;
77051;SDS011;65980;44.898;8.602;2023-01-19T11:17:37;6.65;;;3.40;;
77051;SDS011;65980;44.898;8.602;2023-01-19T11:21:25;7.60;;;3.97;;
77051;SDS011;65980;44.898;8.602;2023-01-19T11:29:19;8.35;;;4.20;;
77051;SDS011;65980;44.898;8.602;2023-01-19T11:32:30;10.02;;;4.38;;
77051;SDS011;65980;44.898;8.602;2023-01-19T11:35:40;8.70;;;4.22;;
77051;SDS011;65980;44.898;8.602;2023-01-19T11:38:49;7.78;;;4.00;;
77051;SDS011;65980;44.898;8.602;2023-01-19T11:42:01;7.07;;;3.70;;
77051;SDS011;65980;44.898;8.602;2023-01-19T11:45:11;7.50;;;3.83;;
77051;SDS011;65980;44.898;8.602;2023-01-19T11:48:24;8.65;;;3.78;;
77051;SDS011;65980;44.898;8.602;2023-01-19T11:51:34;7.63;;;2.72;;
77051;SDS011;65980;44.898;8.602;2023-01-19T11:54:45;2.65;;;1.83;;
77051;SDS011;65980;44.898;8.602;2023-01-19T11:58:03;4.82;;;1.80;;
77051;SDS011;65980;44.898;8.602;2023-01-19T12:04:32;4.50;;;1.85;;
77051;SDS011;65980;44.898;8.602;2023-01-19T12:07:44;4.53;;;1.77;;
77051;SDS011;65980;44.898;8.602;2023-01-19T12:10:51;2.95;;;1.75;;
77051;SDS011;65980;44.898;8.602;2023-01-19T12:14:04;8.75;;;2.28;;
77051;SDS011;65980;44.898;8.602;2023-01-19T12:17:49;3.30;;;2.00;;
77051;SDS011;65980;44.898;8.602;2023-01-19T12:20:57;2.97;;;1.88;;
77051;SDS011;65980;44.898;8.602;2023-01-19T12:24:22;2.10;;;1.33;;
77051;SDS011;65980;44.898;8.602;2023-01-19T12:27:55;1.67;;;1.27;;
77051;SDS011;65980;44.898;8.602;2023-01-19T12:31:05;3.47;;;1.52;;
77051;SDS011;65980;44.898;8.602;2023-01-19T12:37:51;1.15;;;1.02;;
77051;SDS011;65980;44.898;8.602;2023-01-19T12:44:29;2.53;;;1.20;;
77051;SDS011;65980;44.898;8.602;2023-01-19T12:47:37;1.40;;;1.02;;
77051;SDS011;65980;44.898;8.602;2023-01-19T12:50:42;1.80;;;1.13;;
77051;SDS011;65980;44.898;8.602;2023-01-19T12:53:52;5.07;;;1.70;;
77051;SDS011;65980;44.898;8.602;2023-01-19T12:57:00;1.50;;;1.20;;
77051;SDS011;65980;44.898;8.602;2023-01-19T13:03:57;2.15;;;1.58;;
77051;SDS011;65980;44.898;8.602;2023-01-19T13:07:05;3.47;;;1.42;;
77051;SDS011;65980;44.898;8.602;2023-01-19T13:17:45;5.15;;;2.22;;
77051;SDS011;65980;44.898;8.602;2023-01-19T13:21:01;382.52;;;15.32;;
77051;SDS011;65980;44.898;8.602;2023-01-19T13:27:28;2.58;;;1.73;;
77051;SDS011;65980;44.898;8.602;2023-01-19T13:30:34;2.92;;;1.70;;
77051;SDS011;65980;44.898;8.602;2023-01-19T13:36:51;3.08;;;1.77;;
77051;SDS011;65980;44.898;8.602;2023-01-19T13:39:56;3.30;;;2.20;;
77051;SDS011;65980;44.898;8.602;2023-01-19T13:43:02;8.35;;;2.22;;
77051;SDS011;65980;44.898;8.602;2023-01-19T13:46:10;5.90;;;2.30;;
77051;SDS011;65980;44.898;8.602;2023-01-19T13:49:18;3.88;;;1.75;;
77051;SDS011;65980;44.898;8.602;2023-01-19T13:52:32;1.88;;;1.67;;
77051;SDS011;65980;44.898;8.602;2023-01-19T13:55:42;2.67;;;1.70;;
77051;SDS011;65980;44.898;8.602;2023-01-19T13:58:57;4.50;;;2.22;;
77051;SDS011;65980;44.898;8.602;2023-01-19T14:02:11;5.03;;;2.13;;
77051;SDS011;65980;44.898;8.602;2023-01-19T14:05:30;2.55;;;2.20;;
77051;SDS011;65980;44.898;8.602;2023-01-19T14:08:37;3.10;;;2.00;;
77051;SDS011;65980;44.898;8.602;2023-01-19T14:15:17;2.50;;;1.83;;
77051;SDS011;65980;44.898;8.602;2023-01-19T14:18:26;2.20;;;1.70;;
77051;SDS011;65980;44.898;8.602;2023-01-19T14:21:37;4.18;;;1.80;;
77051;SDS011;65980;44.898;8.602;2023-01-19T14:24:43;3.50;;;1.80;;
77051;SDS011;65980;44.898;8.602;2023-01-19T14:27:48;3.92;;;2.00;;
77051;SDS011;65980;44.898;8.602;2023-01-19T14:30:53;2.17;;;1.45;;
77051;SDS011;65980;44.898;8.602;2023-01-19T14:34:03;2.97;;;1.80;;
77051;SDS011;65980;44.898;8.602;2023-01-19T14:37:29;7.95;;;1.67;;
77051;SDS011;65980;44.898;8.602;2023-01-19T14:40:37;2.65;;;1.50;;
77051;SDS011;65980;44.898;8.602;2023-01-19T14:43:42;4.80;;;1.75;;
77051;SDS011;65980;44.898;8.602;2023-01-19T14:46:47;4.20;;;1.52;;
77051;SDS011;65980;44.898;8.602;2023-01-19T14:49:53;1.95;;;1.42;;
77051;SDS011;65980;44.898;8.602;2023-01-19T14:53:02;1.95;;;1.50;;
77051;SDS011;65980;44.898;8.602;2023-01-19T14:56:09;2.13;;;1.58;;
77051;SDS011;65980;44.898;8.602;2023-01-19T14:59:13;4.18;;;1.50;;
77051;SDS011;65980;44.898;8.602;2023-01-19T15:02:20;2.05;;;1.50;;
77051;SDS011;65980;44.898;8.602;2023-01-19T15:05:26;3.83;;;1.45;;
77051;SDS011;65980;44.898;8.602;2023-01-19T15:08:31;2.40;;;1.60;;
77051;SDS011;65980;44.898;8.602;2023-01-19T15:11:36;5.22;;;1.90;;
77051;SDS011;65980;44.898;8.602;2023-01-19T15:14:42;1.80;;;1.55;;
77051;SDS011;65980;44.898;8.602;2023-01-19T15:17:49;3.60;;;1.73;;
77051;SDS011;65980;44.898;8.602;2023-01-19T15:20:56;3.58;;;2.08;;
77051;SDS011;65980;44.898;8.602;2023-01-19T15:24:05;2.40;;;1.80;;
77051;SDS011;65980;44.898;8.602;2023-01-19T15:27:11;3.40;;;1.88;;
77051;SDS011;65980;44.898;8.602;2023-01-19T15:33:27;2.75;;;2.00;;
77051;SDS011;65980;44.898;8.602;2023-01-19T15:36:38;5.97;;;3.15;;
77051;SDS011;65980;44.898;8.602;2023-01-19T15:39:45;5.07;;;2.60;;
77051;SDS011;65980;44.898;8.602;2023-01-19T15:42:50;5.90;;;2.70;;
77051;SDS011;65980;44.898;8.602;2023-01-19T15:46:00;6.55;;;3.40;;
77051;SDS011;65980;44.898;8.602;2023-01-19T15:52:16;9.23;;;3.38;;
77051;SDS011;65980;44.898;8.602;2023-01-19T15:55:21;3.80;;;2.90;;
77051;SDS011;65980;44.898;8.602;2023-01-19T15:58:26;4.40;;;3.20;;
77051;SDS011;65980;44.898;8.602;2023-01-19T16:01:30;5.65;;;3.50;;
77051;SDS011;65980;44.898;8.602;2023-01-19T16:04:36;5.10;;;3.10;;
77051;SDS011;65980;44.898;8.602;2023-01-19T16:07:41;4.63;;;2.92;;
77051;SDS011;65980;44.898;8.602;2023-01-19T16:10:46;5.80;;;2.80;;
77051;SDS011;65980;44.898;8.602;2023-01-19T16:13:50;4.30;;;2.85;;
77051;SDS011;65980;44.898;8.602;2023-01-19T16:16:55;4.25;;;3.15;;
77051;SDS011;65980;44.898;8.602;2023-01-19T16:20:06;6.97;;;4.50;;
77051;SDS011;65980;44.898;8.602;2023-01-19T16:23:12;6.53;;;4.00;;
77051;SDS011;65980;44.898;8.602;2023-01-19T16:26:28;5.60;;;3.72;;
77051;SDS011;65980;44.898;8.602;2023-01-19T16:29:35;6.15;;;4.20;;
77051;SDS011;65980;44.898;8.602;2023-01-19T16:32:39;6.50;;;4.10;;
77051;SDS011;65980;44.898;8.602;2023-01-19T16:35:44;5.20;;;3.63;;
77051;SDS011;65980;44.898;8.602;2023-01-19T16:38:49;7.97;;;4.43;;
77051;SDS011;65980;44.898;8.602;2023-01-19T16:41:53;5.93;;;4.50;;
77051;SDS011;65980;44.898;8.602;2023-01-19T16:45:01;5.53;;;3.80;;
77051;SDS011;65980;44.898;8.602;2023-01-19T16:48:06;6.30;;;3.97;;
77051;SDS011;65980;44.898;8.602;2023-01-19T16:51:10;6.28;;;3.75;;
77051;SDS011;65980;44.898;8.602;2023-01-19T16:54:21;7.47;;;4.30;;
77051;SDS011;65980;44.898;8.602;2023-01-19T17:00:34;4.85;;;3.53;;
77051;SDS011;65980;44.898;8.602;2023-01-19T17:03:39;6.10;;;3.80;;
77051;SDS011;65980;44.898;8.602;2023-01-19T17:06:45;6.85;;;4.20;;
77051;SDS011;65980;44.898;8.602;2023-01-19T17:09:51;7.43;;;4.07;;
77051;SDS011;65980;44.898;8.602;2023-01-19T17:12:58;8.02;;;3.83;;
77051;SDS011;65980;44.898;8.602;2023-01-19T17:16:03;8.80;;;4.45;;
77051;SDS011;65980;44.898;8.602;2023-01-19T17:19:11;5.93;;;4.18;;
77051;SDS011;65980;44.898;8.602;2023-01-19T17:22:18;7.45;;;4.10;;
77051;SDS011;65980;44.898;8.602;2023-01-19T17:25:23;6.70;;;4.22;;
77051;SDS011;65980;44.898;8.602;2023-01-19T17:28:28;6.15;;;4.18;;
77051;SDS011;65980;44.898;8.602;2023-01-19T17:31:34;6.32;;;4.00;;
77051;SDS011;65980;44.898;8.602;2023-01-19T17:34:47;5.72;;;3.70;;
77051;SDS011;65980;44.898;8.602;2023-01-19T17:37:58;6.07;;;4.50;;
77051;SDS011;65980;44.898;8.602;2023-01-19T17:41:14;7.22;;;4.75;;
77051;SDS011;65980;44.898;8.602;2023-01-19T17:44:22;6.50;;;4.65;;
77051;SDS011;65980;44.898;8.602;2023-01-19T17:47:33;7.47;;;4.72;;
77051;SDS011;65980;44.898;8.602;2023-01-19T17:50:49;10.02;;;5.75;;
77051;SDS011;65980;44.898;8.602;2023-01-19T17:53:57;7.97;;;5.15;;
77051;SDS011;65980;44.898;8.602;2023-01-19T17:57:22;7.97;;;5.50;;
77051;SDS011;65980;44.898;8.602;2023-01-19T18:00:34;8.55;;;5.68;;
77051;SDS011;65980;44.898;8.602;2023-01-19T18:08:22;8.20;;;5.55;;
77051;SDS011;65980;44.898;8.602;2023-01-19T18:11:27;10.02;;;7.10;;
77051;SDS011;65980;44.898;8.602;2023-01-19T18:14:33;9.23;;;6.35;;
77051;SDS011;65980;44.898;8.602;2023-01-19T18:17:43;11.60;;;6.68;;
77051;SDS011;65980;44.898;8.602;2023-01-19T18:20:51;8.95;;;6.32;;
77051;SDS011;65980;44.898;8.602;2023-01-19T18:24:08;13.40;;;6.93;;
77051;SDS011;65980;44.898;8.602;2023-01-19T18:27:12;9.65;;;6.15;;
77051;SDS011;65980;44.898;8.602;2023-01-19T18:30:34;12.18;;;7.22;;
77051;SDS011;65980;44.898;8.602;2023-01-19T18:33:43;10.20;;;6.65;;
77051;SDS011;65980;44.898;8.602;2023-01-19T18:37:01;10.88;;;7.50;;
77051;SDS011;65980;44.898;8.602;2023-01-19T18:40:39;12.38;;;7.70;;
77051;SDS011;65980;44.898;8.602;2023-01-19T18:44:00;12.32;;;7.90;;
77051;SDS011;65980;44.898;8.602;2023-01-19T18:47:04;11.40;;;7.50;;
77051;SDS011;65980;44.898;8.602;2023-01-19T18:50:19;12.25;;;7.70;;
77051;SDS011;65980;44.898;8.602;2023-01-19T18:53:24;11.60;;;7.68;;
77051;SDS011;65980;44.898;8.602;2023-01-19T18:56:52;12.77;;;8.27;;
77051;SDS011;65980;44.898;8.602;2023-01-19T19:00:01;16.67;;;9.40;;
77051;SDS011;65980;44.898;8.602;2023-01-19T19:03:09;14.02;;;8.07;;
77051;SDS011;65980;44.898;8.602;2023-01-19T19:06:14;17.98;;;9.25;;
77051;SDS011;65980;44.898;8.602;2023-01-19T19:09:22;15.40;;;10.27;;
77051;SDS011;65980;44.898;8.602;2023-01-19T19:12:35;15.35;;;10.68;;
77051;SDS011;65980;44.898;8.602;2023-01-19T19:15:40;15.48;;;10.30;;
77051;SDS011;65980;44.898;8.602;2023-01-19T19:18:44;19.88;;;11.50;;
77051;SDS011;65980;44.898;8.602;2023-01-19T19:21:52;19.50;;;12.15;;
77051;SDS011;65980;44.898;8.602;2023-01-19T19:24:59;18.65;;;11.25;;
77051;SDS011;65980;44.898;8.602;2023-01-19T19:28:04;20.20;;;12.27;;
77051;SDS011;65980;44.898;8.602;2023-01-19T19:31:14;19.02;;;11.63;;
77051;SDS011;65980;44.898;8.602;2023-01-19T19:34:21;17.80;;;10.60;;
77051;SDS011;65980;44.898;8.602;2023-01-19T19:37:28;17.85;;;11.05;;
77051;SDS011;65980;44.898;8.602;2023-01-19T19:40:36;16.30;;;10.63;;
77051;SDS011;65980;44.898;8.602;2023-01-19T19:43:41;19.45;;;11.07;;
77051;SDS011;65980;44.898;8.602;2023-01-19T19:46:49;19.67;;;10.45;;
77051;SDS011;65980;44.898;8.602;2023-01-19T19:49:54;22.58;;;11.07;;
77051;SDS011;65980;44.898;8.602;2023-01-19T19:52:59;18.30;;;9.85;;
77051;SDS011;65980;44.898;8.602;2023-01-19T19:56:08;15.32;;;9.68;;
77051;SDS011;65980;44.898;8.602;2023-01-19T19:59:16;17.65;;;10.05;;
77051;SDS011;65980;44.898;8.602;2023-01-19T20:02:21;17.23;;;10.57;;
77051;SDS011;65980;44.898;8.602;2023-01-19T20:05:34;19.05;;;10.70;;
77051;SDS011;65980;44.898;8.602;2023-01-19T20:08:39;20.73;;;10.88;;
77051;SDS011;65980;44.898;8.602;2023-01-19T20:11:44;16.15;;;10.65;;
77051;SDS011;65980;44.898;8.602;2023-01-19T20:15:03;18.45;;;11.00;;
77051;SDS011;65980;44.898;8.602;2023-01-19T20:18:15;16.38;;;10.25;;
77051;SDS011;65980;44.898;8.602;2023-01-19T20:21:34;16.50;;;10.43;;
77051;SDS011;65980;44.898;8.602;2023-01-19T20:24:44;18.50;;;10.23;;
77051;SDS011;65980;44.898;8.602;2023-01-19T20:27:49;16.90;;;10.63;;